Google Maps JavaScript API Example
Pilot Flight Report # 95727 Submitted by : AST195 on 2021-12-28
Date: 2021-12-28Aircraft: Airbus A320-200
Flight No.: AST21114Distance (Nm): 1145.85
Departure: KRNO - Reno/Tahoe IntlDestination: KTUL - Tulsa Intl
 TimeFuelWeightSpeeds  
Out (Taxi)0605 Flight RulesIFR
Off (Takeoff)0605 Flight Level
On (Landing)0918 VSTD
In (Ramp)0918 ZFW
Flight3.22  -  3:136294  Pax0
Block3.22  -  3:136294  Cargo0
Departure WeatherKRNO 280855Z 05003KT 10SM FEW040 BKN080 BKN110 M02/M07 A2967 RMK AO2 SLP051 T10221072 58001
Destination WeatherKTUL 280853Z 33003KT 10SM BKN018 OVC024 11/01 A2958 RMK AO2 SLP012 T01110011 56023
Flight CommentsN/A